Mashantucket, Connecticut
Current Conditions -  °F | °C
As of 7:56 PM on Tuesday 25 Nov 2014 (Local Time) from KGON Reporting Station
Clear Clear  
Wind Chill: 47°   Ceiling: Unl
Heat Index: 49°   Visibility: 9mi
Dew Point: 36°   Wind: 5mph
Humidity: 61%   Direction: 270°W
Pressure: 30.07"   Gusts: NA
Location:  41.47°N, 71.96°W
Report Text: KGON 260056Z 27004KT 9SM CLR 09/02 A3007 RMK AO2 SLP180 T00940022
Loading
Personal Weather Stations






























Interactive Weather Map New forecast layout! Learn more

10-Day Weather Forecast

Advertisements
Track Severe Weather on mobile